Time;durP1;ratioP1;P1;durP2;ratioP2;P2;SDS_P1;SDS_P2;PMS_P1;PMS_P2;Temp;Humidity;BMP_temperature;BMP_pressure;BME280_temperature;BME280_humidity;BME280_pressure;Samples;Min_cycle;Max_cycle;Signal;HPM_P1;HPM_P2
2022/12/12 04:43:34;;;;;;;6.93;4.17;;;12.20;88.10;;;;;;4590094;19;20773;-28
2022/12/12 04:45:14;;;;;;;5.27;3.93;;;12.20;88.30;;;;;;4590621;19;20487;-28
2022/12/12 04:46:47;;;;;;;6.43;3.80;;;12.30;88.10;;;;;;4591903;19;20439;-28
2022/12/12 04:48:23;;;;;;;8.90;4.63;;;12.30;88.10;;;;;;4592174;19;20448;-28
2022/12/12 04:49:54;;;;;;;7.47;4.23;;;12.40;87.90;;;;;;4592291;19;20429;-28
2022/12/12 04:51:32;;;;;;;7.27;4.27;;;12.40;87.60;;;;;;4592241;19;20819;-28
2022/12/12 04:53:06;;;;;;;6.30;4.33;;;12.50;87.70;;;;;;4593560;19;20502;-28
2022/12/12 04:55:08;;;;;;;8.97;5.60;;;12.50;87.60;;;;;;4593716;19;20417;-28
2022/12/12 04:56:40;;;;;;;9.90;6.50;;;12.50;87.50;;;;;;4592780;19;20522;-28
2022/12/12 04:58:13;;;;;;;10.37;5.97;;;12.60;87.30;;;;;;4592047;19;20421;-28
2022/12/12 04:59:45;;;;;;;8.90;5.70;;;12.60;87.10;;;;;;4590332;19;20475;-28
2022/12/12 05:01:28;;;;;;;7.13;4.83;;;12.60;87.00;;;;;;4590704;19;20470;-28
2022/12/12 05:03:08;;;;;;;7.97;4.88;;;12.70;87.00;;;;;;4591695;19;20448;-28
2022/12/12 05:04:56;;;;;;;7.07;3.80;;;12.70;87.00;;;;;;4588207;19;20014;-28
2022/12/12 05:06:42;;;;;;;9.27;4.40;;;12.70;86.80;;;;;;4589785;19;20843;-31
2022/12/12 05:08:48;;;;;;;7.60;4.63;;;12.70;86.80;;;;;;4589465;19;20461;-30
2022/12/12 05:10:19;;;;;;;8.53;4.20;;;12.70;86.70;;;;;;4590399;19;20453;-28
2022/12/12 05:11:50;;;;;;;8.68;4.70;;;12.70;86.70;;;;;;4589904;19;20490;-28
2022/12/12 05:13:23;;;;;;;11.95;6.10;;;12.80;86.30;;;;;;4590829;19;20014;-32
2022/12/12 05:14:55;;;;;;;12.90;6.90;;;12.90;86.40;;;;;;4588762;19;20067;-28
2022/12/12 05:16:31;;;;;;;10.27;5.70;;;12.90;86.40;;;;;;4588814;19;20441;-30
2022/12/12 05:18:06;;;;;;;13.10;6.67;;;12.80;86.40;;;;;;4588352;19;20011;-30
2022/12/12 05:19:37;;;;;;;13.87;6.23;;;12.80;86.50;;;;;;4588349;19;20448;-29
2022/12/12 05:21:08;;;;;;;12.77;7.18;;;12.90;86.30;;;;;;4591050;19;21098;-28
2022/12/12 05:22:40;;;;;;;11.60;6.17;;;13.00;86.20;;;;;;4590482;19;20029;-29
2022/12/12 05:24:11;;;;;;;13.98;7.45;;;13.00;86.40;;;;;;4590107;19;20497;-30
2022/12/12 05:25:43;;;;;;;12.20;6.17;;;12.90;86.30;;;;;;4588526;19;20010;-29
2022/12/12 05:27:16;;;;;;;15.47;7.10;;;12.80;86.30;;;;;;4589548;19;20483;-29
2022/12/12 05:28:47;;;;;;;10.55;4.90;;;12.80;86.30;;;;;;4589291;19;20516;-29
2022/12/12 05:30:18;;;;;;;11.88;5.38;;;12.70;86.30;;;;;;4588213;19;20010;-29
2022/12/12 05:31:49;;;;;;;10.52;4.93;;;12.70;86.30;;;;;;4588503;19;20021;-28
2022/12/12 05:33:20;;;;;;;10.55;5.45;;;12.70;86.30;;;;;;4588164;19;20050;-31
2022/12/12 05:34:51;;;;;;;8.93;4.82;;;12.70;86.40;;;;;;4589704;19;20344;-30
2022/12/12 05:36:23;;;;;;;9.50;4.70;;;12.70;86.40;;;;;;4589672;19;20011;-29
2022/12/12 05:37:55;;;;;;;8.03;3.77;;;12.70;86.40;;;;;;4590444;19;20039;-31
2022/12/12 05:39:26;;;;;;;8.48;3.78;;;12.60;86.40;;;;;;4591575;19;20437;-30
2022/12/12 05:40:58;;;;;;;;;;;12.60;86.60;;;;;;4592359;19;20123;-29
2022/12/12 05:42:30;;;;;;;6.87;3.77;;;12.80;89.10;;;;;;4591300;19;20399;-32
2022/12/12 06:14:49;;;;;;;6.03;3.80;;;12.50;86.50;;;;;;4590436;19;20454;-31
2022/12/12 06:16:20;;;;;;;4.35;2.78;;;12.50;86.50;;;;;;4589872;19;20447;-28
2022/12/12 06:17:51;;;;;;;6.47;3.08;;;12.50;86.50;;;;;;4590125;19;20018;-28
2022/12/12 06:19:23;;;;;;;6.47;3.83;;;12.50;86.40;;;;;;4591113;19;20017;-32
2022/12/12 06:21:04;;;;;;;9.90;5.45;;;12.60;86.40;;;;;;4590786;19;20025;-31
2022/12/12 06:22:36;;;;;;;4.38;2.78;;;12.50;86.30;;;;;;4591051;19;20011;-32
2022/12/12 06:24:07;;;;;;;4.65;2.80;;;12.50;86.30;;;;;;4592391;19;20475;-30
2022/12/12 06:25:39;;;;;;;5.03;2.70;;;12.50;86.30;;;;;;4589942;19;20042;-28
2022/12/12 06:27:10;;;;;;;4.13;2.28;;;12.50;86.30;;;;;;4589477;19;20775;-29
2022/12/12 06:28:43;;;;;;;6.40;3.20;;;12.60;86.50;;;;;;4590614;19;20027;-29
2022/12/12 06:30:15;;;;;;;4.73;2.77;;;12.60;86.40;;;;;;4590203;19;21042;-29
2022/12/12 06:31:46;;;;;;;6.10;2.90;;;12.60;86.30;;;;;;4589655;19;20446;-29
2022/12/12 06:33:18;;;;;;;4.83;2.70;;;12.50;86.40;;;;;;4590478;19;20022;-29
2022/12/12 06:34:51;;;;;;;5.47;3.00;;;12.40;86.20;;;;;;4591157;19;20478;-29
2022/12/12 06:36:23;;;;;;;4.43;3.03;;;12.40;86.20;;;;;;4590821;19;20528;-29
2022/12/12 06:37:55;;;;;;;;;;;12.40;86.20;;;;;;4590659;19;20448;-29
2022/12/12 06:39:26;;;;;;;6.10;3.47;;;12.40;86.20;;;;;;4590379;19;20321;-32
2022/12/12 06:40:58;;;;;;;4.95;2.67;;;12.40;86.20;;;;;;4590156;19;20006;-30
2022/12/12 06:42:29;;;;;;;5.75;3.10;;;12.40;86.20;;;;;;4590583;19;20017;-30
2022/12/12 06:44:00;;;;;;;4.78;2.97;;;12.40;86.30;;;;;;4590613;19;20026;-32
2022/12/12 06:45:32;;;;;;;7.70;4.38;;;12.40;86.20;;;;;;4589199;19;20002;-31
2022/12/12 06:47:03;;;;;;;5.63;3.70;;;12.40;86.30;;;;;;4589321;19;20053;-28
2022/12/12 06:48:35;;;;;;;7.78;4.38;;;12.40;86.30;;;;;;4590195;19;20023;-30
2022/12/12 06:50:07;;;;;;;5.50;3.57;;;12.30;86.40;;;;;;4590909;19;20025;-29
2022/12/12 06:51:42;;;;;;;;;;;12.30;86.30;;;;;;4591036;19;20461;-28
2022/12/12 06:53:13;;;;;;;7.90;4.73;;;12.40;86.30;;;;;;4590390;19;19919;-29
2022/12/12 06:54:45;;;;;;;8.15;4.90;;;12.40;86.30;;;;;;4591156;19;20802;-29
2022/12/12 06:56:19;;;;;;;;;;;12.40;86.40;;;;;;4590911;19;20018;-29
2022/12/12 06:57:50;;;;;;;6.33;3.90;;;12.50;86.20;;;;;;4587614;19;19942;-28
2022/12/12 06:59:22;;;;;;;5.88;3.50;;;12.50;86.30;;;;;;4589844;19;20495;-28
2022/12/12 07:00:53;;;;;;;5.72;3.55;;;12.50;86.60;;;;;;4591351;19;20006;-29
2022/12/12 07:02:24;;;;;;;4.13;2.65;;;12.40;86.60;;;;;;4591346;19;20010;-28
2022/12/12 07:03:55;;;;;;;4.63;2.92;;;12.30;86.60;;;;;;4590075;19;20018;-29
2022/12/12 07:05:27;;;;;;;5.13;3.08;;;12.30;86.90;;;;;;4589788;19;19999;-29
2022/12/12 07:06:58;;;;;;;4.63;2.88;;;12.30;86.90;;;;;;4590213;19;20400;-28
2022/12/12 07:08:29;;;;;;;5.15;2.88;;;12.40;87.00;;;;;;4590162;19;20345;-28
2022/12/12 07:10:01;;;;;;;5.28;3.17;;;12.40;87.10;;;;;;4589326;19;20488;-29
2022/12/12 07:11:32;;;;;;;6.55;3.42;;;12.40;87.10;;;;;;4592060;19;20019;-29
2022/12/12 07:13:03;;;;;;;4.63;2.70;;;12.40;87.20;;;;;;4588895;19;20003;-29
2022/12/12 07:14:37;;;;;;;6.15;3.47;;;12.40;87.20;;;;;;4589457;19;20077;-29
2022/12/12 07:16:09;;;;;;;6.53;3.83;;;12.40;87.20;;;;;;4590507;19;20026;-29
2022/12/12 07:17:40;;;;;;;4.53;3.13;;;12.40;87.30;;;;;;4590802;19;20417;-29
2022/12/12 07:19:11;;;;;;;5.57;3.85;;;12.40;87.40;;;;;;4589650;19;20007;-29
2022/12/12 07:20:43;;;;;;;5.13;3.13;;;12.30;87.40;;;;;;4588831;19;20006;-29
2022/12/12 07:22:15;;;;;;;6.10;3.87;;;12.40;87.50;;;;;;4588710;19;20018;-29
2022/12/12 07:23:46;;;;;;;6.18;3.10;;;12.40;87.50;;;;;;4589450;19;20424;-28
2022/12/12 07:25:17;;;;;;;5.85;3.75;;;12.40;87.50;;;;;;4587986;19;20010;-29
2022/12/12 07:26:48;;;;;;;6.28;3.42;;;12.40;87.60;;;;;;4590027;19;20026;-29
2022/12/12 07:28:20;;;;;;;6.57;4.22;;;12.40;87.60;;;;;;4588723;19;20075;-28
2022/12/12 07:29:51;;;;;;;5.20;3.42;;;12.40;87.60;;;;;;4590103;19;20009;-29
2022/12/12 07:31:25;;;;;;;8.50;5.65;;;12.40;87.70;;;;;;4589623;19;20345;-29
2022/12/12 07:32:56;;;;;;;6.53;3.80;;;12.40;87.70;;;;;;4588843;19;20015;-29
2022/12/12 07:34:28;;;;;;;4.43;3.00;;;12.40;87.80;;;;;;4590130;19;21002;-28
2022/12/12 07:35:59;;;;;;;;;;;12.30;87.90;;;;;;4590495;19;20003;-29
2022/12/12 07:37:31;;;;;;;6.50;3.58;;;12.30;88.00;;;;;;4588360;19;19921;-29
2022/12/12 07:39:02;;;;;;;7.15;4.70;;;12.30;88.00;;;;;;4589697;19;20029;-29
2022/12/12 07:40:33;;;;;;;8.57;5.03;;;12.30;88.00;;;;;;4589972;19;19995;-29
2022/12/12 07:42:05;;;;;;;5.83;4.13;;;12.40;88.10;;;;;;4588078;19;20014;-29
2022/12/12 07:43:37;;;;;;;6.32;4.05;;;12.40;88.10;;;;;;4588563;19;20507;-29
2022/12/12 07:45:08;;;;;;;5.50;3.20;;;12.40;88.60;;;;;;4587856;19;20007;-29
2022/12/12 07:46:40;;;;;;;5.60;3.57;;;12.30;88.20;;;;;;4588733;19;20003;-29
2022/12/12 07:48:11;;;;;;;6.22;3.92;;;12.40;88.10;;;;;;4588918;19;20487;-29
2022/12/12 07:49:42;;;;;;;5.45;3.75;;;12.40;88.20;;;;;;4589266;19;20011;-28
2022/12/12 07:51:14;;;;;;;4.22;2.88;;;12.40;88.10;;;;;;4589398;19;19999;-29
2022/12/12 07:52:45;;;;;;;4.53;3.22;;;12.40;88.20;;;;;;4588350;19;20007;-28
2022/12/12 07:54:17;;;;;;;4.45;3.33;;;12.40;88.30;;;;;;4588821;19;20010;-28
2022/12/12 07:55:48;;;;;;;4.00;2.70;;;12.40;88.30;;;;;;4589418;19;20015;-28
2022/12/12 07:57:20;;;;;;;5.25;3.20;;;12.40;88.40;;;;;;4588527;19;20005;-29
2022/12/12 07:58:52;;;;;;;8.32;4.63;;;12.40;88.30;;;;;;4588795;19;20510;-28
2022/12/12 08:00:24;;;;;;;12.67;7.50;;;12.50;88.40;;;;;;4589230;19;20025;-28
2022/12/12 08:01:55;;;;;;;11.07;6.18;;;12.50;88.30;;;;;;4587881;19;20825;-28
2022/12/12 08:03:26;;;;;;;8.70;6.30;;;12.50;88.30;;;;;;4592054;19;20018;-28
2022/12/12 08:04:58;;;;;;;;;;;12.50;88.30;;;;;;4593434;19;20023;-28
2022/12/12 08:06:29;;;;;;;9.33;6.67;;;12.60;88.10;;;;;;4593683;19;20325;-28
2022/12/12 08:08:00;;;;;;;;;;;12.60;88.10;;;;;;4594651;19;20021;-28
2022/12/12 08:09:33;;;;;;;8.25;6.50;;;12.60;88.00;;;;;;4594681;19;19986;-28
2022/12/12 08:11:08;;;;;;;6.55;5.38;;;12.70;88.00;;;;;;4593022;19;20018;-28
2022/12/12 08:12:39;;;;;;;6.93;5.63;;;12.60;88.10;;;;;;4593449;19;20067;-28
2022/12/12 08:14:10;;;;;;;6.57;4.68;;;12.60;88.10;;;;;;4593520;19;21066;-29
2022/12/12 08:15:43;;;;;;;6.78;6.07;;;12.60;88.20;;;;;;4594247;19;20053;-29
2022/12/12 08:17:14;;;;;;;;;;;12.60;88.30;;;;;;4594162;19;20014;-30
2022/12/12 08:18:45;;;;;;;8.33;6.40;;;12.60;88.40;;;;;;4593139;19;19940;-29
2022/12/12 08:20:17;;;;;;;12.52;7.72;;;12.60;88.30;;;;;;4591985;19;20449;-28
2022/12/12 08:21:48;;;;;;;11.13;5.70;;;12.60;88.40;;;;;;4593047;19;20009;-29
2022/12/12 08:23:19;;;;;;;;;;;12.60;88.40;;;;;;4592991;19;20109;-30
2022/12/12 08:24:50;;;;;;;7.60;5.97;;;12.60;88.40;;;;;;4591832;19;19911;-32
2022/12/12 08:26:21;;;;;;;12.85;8.38;;;12.60;88.40;;;;;;4593342;19;20401;-32
2022/12/12 08:27:53;;;;;;;15.00;8.63;;;12.70;88.50;;;;;;4592897;19;20387;-29
2022/12/12 08:29:24;;;;;;;17.60;9.38;;;12.70;88.50;;;;;;4593178;19;20010;-31
2022/12/12 08:30:55;;;;;;;12.00;6.85;;;12.70;88.60;;;;;;4593784;19;20037;-30
2022/12/12 08:32:27;;;;;;;9.50;5.05;;;12.60;88.60;;;;;;4595053;19;20031;-32
2022/12/12 08:33:59;;;;;;;12.10;7.13;;;12.60;88.80;;;;;;4595080;19;20014;-29
2022/12/12 08:35:31;;;;;;;12.68;7.15;;;12.50;88.90;;;;;;4593036;19;20472;-31
2022/12/12 08:37:02;;;;;;;12.87;7.83;;;12.50;89.00;;;;;;4589290;19;20340;-27
2022/12/12 08:38:33;;;;;;;9.63;6.72;;;12.50;89.00;;;;;;4591502;19;20484;-31
2022/12/12 08:40:05;;;;;;;8.82;5.70;;;12.50;88.90;;;;;;4591110;19;20405;-33
2022/12/12 08:41:38;;;;;;;10.03;6.17;;;12.50;89.10;;;;;;4588115;19;20650;-32
2022/12/12 08:43:09;;;;;;;12.70;8.60;;;12.50;89.10;;;;;;4591142;19;20468;-32
2022/12/12 08:44:40;;;;;;;10.63;7.53;;;12.50;89.10;;;;;;4590212;19;21125;-31
2022/12/12 08:46:13;;;;;;;8.18;4.72;;;12.50;89.30;;;;;;4588777;19;20054;-30
2022/12/12 08:47:44;;;;;;;8.57;6.17;;;12.50;89.20;;;;;;4589511;19;20018;-27
2022/12/12 08:49:15;;;;;;;10.20;6.20;;;12.40;89.10;;;;;;4589330;19;20471;-31
2022/12/12 08:50:46;;;;;;;10.43;7.13;;;12.40;89.20;;;;;;4589144;19;20015;-29
2022/12/12 08:52:17;;;;;;;8.00;5.43;;;12.40;89.30;;;;;;4589156;19;20507;-29
2022/12/12 08:53:49;;;;;;;8.63;6.15;;;12.40;89.20;;;;;;4588106;19;20483;-28
2022/12/12 08:55:21;;;;;;;6.60;4.40;;;12.40;89.30;;;;;;4588631;19;20018;-31
2022/12/12 08:56:52;;;;;;;8.65;6.30;;;12.40;89.30;;;;;;4588507;19;20505;-29
2022/12/12 08:58:23;;;;;;;8.95;6.65;;;12.40;89.40;;;;;;4587961;19;20101;-29
2022/12/12 08:59:54;;;;;;;11.70;7.15;;;12.40;89.50;;;;;;4588563;19;20010;-29
2022/12/12 09:01:26;;;;;;;11.27;6.78;;;12.30;89.40;;;;;;4587973;19;20011;-31
2022/12/12 09:02:58;;;;;;;15.70;9.13;;;12.30;89.50;;;;;;4588228;19;20014;-31
2022/12/12 09:04:29;;;;;;;20.67;10.77;;;12.30;89.50;;;;;;4588185;19;20014;-30
2022/12/12 09:06:00;;;;;;;14.82;8.95;;;12.30;89.50;;;;;;4589189;19;20803;-27
2022/12/12 09:07:31;;;;;;;17.83;9.32;;;12.30;89.60;;;;;;4588809;19;20404;-28
2022/12/12 09:09:04;;;;;;;16.85;9.25;;;12.30;89.70;;;;;;4588791;19;20471;-30
2022/12/12 09:10:36;;;;;;;11.90;6.80;;;12.30;89.60;;;;;;4587806;19;20018;-30
2022/12/12 09:12:07;;;;;;;17.17;8.27;;;12.30;89.60;;;;;;4590999;19;20469;-28
2022/12/12 09:13:39;;;;;;;14.37;7.50;;;12.30;89.80;;;;;;4590033;19;20014;-30
2022/12/12 09:15:10;;;;;;;13.85;7.38;;;12.30;89.70;;;;;;4587704;19;20453;-32
2022/12/12 09:16:41;;;;;;;14.43;7.00;;;12.20;89.90;;;;;;4587750;19;20080;-32
2022/12/12 09:18:12;;;;;;;14.23;7.55;;;12.10;90.00;;;;;;4588674;19;20017;-31
2022/12/12 09:19:44;;;;;;;12.05;6.32;;;12.10;90.00;;;;;;4588379;19;20376;-29
2022/12/12 09:21:16;;;;;;;15.93;6.97;;;12.20;90.00;;;;;;4586227;19;20022;-31
2022/12/12 09:22:48;;;;;;;13.37;7.00;;;12.20;90.00;;;;;;4587868;19;20948;-32
2022/12/12 09:24:19;;;;;;;16.50;7.63;;;12.30;90.00;;;;;;4591493;19;20512;-32
2022/12/12 09:25:50;;;;;;;11.07;5.70;;;12.40;90.00;;;;;;4588322;19;20059;-30
2022/12/12 09:27:21;;;;;;;14.98;7.20;;;12.30;90.00;;;;;;4588414;19;20011;-32
2022/12/12 09:28:52;;;;;;;14.52;8.00;;;12.30;90.10;;;;;;4588256;19;20024;-29
2022/12/12 09:30:24;;;;;;;15.48;7.68;;;12.30;90.10;;;;;;4588203;19;20021;-31
2022/12/12 09:32:05;;;;;;;16.10;7.87;;;12.20;90.10;;;;;;4591221;19;20356;-30
2022/12/12 09:33:36;;;;;;;14.87;7.03;;;12.20;90.10;;;;;;4591341;19;20495;-30
2022/12/12 09:35:07;;;;;;;17.67;8.68;;;12.20;90.10;;;;;;4591705;19;21016;-30
2022/12/12 09:36:39;;;;;;;14.10;7.40;;;12.20;90.20;;;;;;4590362;19;20043;-30
2022/12/12 09:38:11;;;;;;;10.98;5.82;;;12.20;90.20;;;;;;4589944;19;20452;-31
2022/12/12 09:39:42;;;;;;;;;;;12.20;90.20;;;;;;4593160;19;20013;-30
2022/12/12 09:41:18;;;;;;;15.45;8.45;;;12.20;90.20;;;;;;4591605;19;19918;-31
2022/12/12 09:42:49;;;;;;;10.97;4.80;;;12.30;90.20;;;;;;4591363;19;20011;-29
2022/12/12 09:44:21;;;;;;;15.35;7.85;;;12.20;90.20;;;;;;4589154;19;20819;-31
2022/12/12 09:45:52;;;;;;;13.83;7.23;;;12.20;90.20;;;;;;4590766;19;20069;-31
2022/12/12 09:47:40;;;;;;;12.15;6.53;;;12.20;90.20;;;;;;4590631;19;20428;-32
2022/12/12 09:49:36;;;;;;;16.27;8.53;;;12.10;90.20;;;;;;4590255;19;20011;-30
2022/12/12 09:51:09;;;;;;;8.97;4.77;;;12.00;90.20;;;;;;4591394;19;20409;-31
2022/12/12 09:52:40;;;;;;;9.63;5.90;;;12.20;90.20;;;;;;4589127;19;20859;-30
2022/12/12 09:54:13;;;;;;;6.63;4.00;;;12.30;90.10;;;;;;4588152;19;20465;-28
2022/12/12 09:56:03;;;;;;;8.90;4.77;;;12.30;90.10;;;;;;4591876;19;20014;-28
2022/12/12 09:57:41;;;;;;;19.07;11.70;;;12.30;90.10;;;;;;4589272;19;20472;-29
2022/12/12 09:59:40;;;;;;;11.90;6.33;;;12.20;90.10;;;;;;4589221;19;21040;-28
2022/12/12 10:01:30;;;;;;;9.50;6.07;;;12.20;90.10;;;;;;4586846;19;20453;-28
2022/12/12 10:03:13;;;;;;;11.97;6.43;;;12.30;90.10;;;;;;4587152;19;20994;-28
2022/12/12 10:05:07;;;;;;;10.30;6.07;;;12.30;90.10;;;;;;4587238;19;20457;-28
2022/12/12 10:06:46;;;;;;;8.33;5.03;;;12.20;90.00;;;;;;4586793;19;20884;-28
2022/12/12 10:08:19;;;;;;;5.70;3.47;;;12.10;89.90;;;;;;4587681;19;20413;-28
2022/12/12 10:10:09;;;;;;;8.00;5.20;;;12.10;90.00;;;;;;4587146;19;20486;-28
2022/12/12 10:11:53;;;;;;;8.53;5.47;;;12.20;90.00;;;;;;4588243;19;20571;-28
2022/12/12 10:13:26;;;;;;;10.30;6.67;;;12.20;90.00;;;;;;4586940;19;20444;-28
2022/12/12 10:15:04;;;;;;;9.13;6.33;;;12.20;90.00;;;;;;4586730;19;20452;-28
2022/12/12 10:16:37;;;;;;;7.83;5.00;;;12.20;90.00;;;;;;4587698;19;20463;-29
2022/12/12 10:18:17;;;;;;;7.97;5.17;;;12.20;90.00;;;;;;4589386;19;21107;-28
2022/12/12 10:20:13;;;;;;;7.10;4.50;;;12.20;90.00;;;;;;4589477;19;20473;-28
2022/12/12 10:21:45;;;;;;;6.00;3.47;;;12.20;90.00;;;;;;4586741;19;20112;-29
2022/12/12 10:23:31;;;;;;;8.98;5.35;;;12.20;90.00;;;;;;4589356;19;20464;-28
2022/12/12 10:25:25;;;;;;;7.40;5.57;;;12.30;90.00;;;;;;4588114;19;20014;-29
2022/12/12 10:26:58;;;;;;;11.63;7.87;;;12.30;89.90;;;;;;4586667;19;20444;-28
2022/12/12 10:28:30;;;;;;;8.30;6.43;;;12.30;90.00;;;;;;4588766;19;20523;-28
2022/12/12 10:30:13;;;;;;;9.13;5.85;;;12.30;90.00;;;;;;4588930;19;20476;-28
2022/12/12 10:32:02;;;;;;;11.57;6.57;;;12.30;90.00;;;;;;4588858;19;20490;-29
2022/12/12 10:34:07;;;;;;;12.83;7.57;;;12.30;89.90;;;;;;4589668;19;20479;-28
2022/12/12 10:35:52;;;;;;;11.40;7.17;;;12.30;90.10;;;;;;4586774;19;20456;-28
2022/12/12 10:37:35;;;;;;;8.97;5.83;;;12.30;89.80;;;;;;4586647;19;20457;-29
2022/12/12 10:39:22;;;;;;;;;;;12.30;89.70;;;;;;4587103;19;20493;-28
2022/12/12 10:41:15;;;;;;;8.67;5.13;;;12.20;89.70;;;;;;4586625;19;19933;-29
2022/12/12 10:42:57;;;;;;;17.60;9.17;;;12.20;89.70;;;;;;4587068;19;20849;-29
2022/12/12 10:45:16;;;;;;;14.00;7.45;;;12.30;89.90;;;;;;4585576;19;20483;-28
2022/12/12 10:47:03;;;;;;;12.83;6.70;;;12.30;89.80;;;;;;4588124;19;20018;-29
2022/12/12 10:48:35;;;;;;;8.73;5.17;;;12.30;89.70;;;;;;4588075;19;20583;-29
2022/12/12 10:50:26;;;;;;;6.55;4.55;;;12.30;89.60;;;;;;4588333;19;20448;-28
2022/12/12 10:51:59;;;;;;;7.20;4.60;;;12.30;89.60;;;;;;4588833;19;20018;-28
2022/12/12 10:53:31;;;;;;;7.50;4.77;;;12.30;89.50;;;;;;4587539;19;20039;-28
2022/12/12 10:55:05;;;;;;;8.77;5.82;;;12.30;89.50;;;;;;4587516;19;20461;-29
2022/12/12 10:56:36;;;;;;;10.30;6.57;;;12.30;89.50;;;;;;4586838;19;20015;-29
2022/12/12 10:58:08;;;;;;;7.95;5.55;;;12.30;89.60;;;;;;4587181;19;20513;-28
2022/12/12 10:59:44;;;;;;;9.82;5.55;;;12.30;89.60;;;;;;4586111;19;20021;-29
2022/12/12 11:01:32;;;;;;;5.20;3.60;;;12.30;89.60;;;;;;4586293;19;20081;-29
2022/12/12 11:03:25;;;;;;;7.43;4.30;;;12.30;89.50;;;;;;4586364;19;20479;-28
2022/12/12 11:04:59;;;;;;;10.93;6.43;;;12.40;89.50;;;;;;4586866;19;20530;-29
2022/12/12 11:06:44;;;;;;;17.43;11.27;;;12.40;89.50;;;;;;4586685;19;20868;-28
2022/12/12 11:08:24;;;;;;;14.63;10.07;;;12.30;89.60;;;;;;4586578;19;20582;-29
2022/12/12 11:09:56;;;;;;;8.07;5.33;;;12.20;89.50;;;;;;4586437;19;20480;-28
2022/12/12 11:11:28;;;;;;;6.47;4.33;;;12.30;89.60;;;;;;4585902;19;21105;-28
2022/12/12 11:13:09;;;;;;;;;;;12.20;89.50;;;;;;4587066;19;20437;-28
2022/12/12 11:14:45;;;;;;;12.73;7.33;;;12.20;89.40;;;;;;4585429;19;19926;-28
2022/12/12 11:16:19;;;;;;;15.17;10.77;;;12.30;89.40;;;;;;4585733;19;20457;-28
2022/12/12 11:17:51;;;;;;;8.57;5.67;;;12.30;89.70;;;;;;4585886;19;20445;-28
2022/12/12 11:19:23;;;;;;;13.82;10.45;;;12.30;89.50;;;;;;4588679;19;20457;-29
2022/12/12 11:21:00;;;;;;;8.17;4.93;;;12.30;89.50;;;;;;4587907;19;20015;-28
2022/12/12 11:22:32;;;;;;;6.63;4.10;;;12.30;89.50;;;;;;4587524;19;20456;-28
2022/12/12 11:24:06;;;;;;;6.97;4.72;;;12.20;89.40;;;;;;4588461;19;21044;-28
2022/12/12 11:25:37;;;;;;;9.43;5.97;;;12.30;89.50;;;;;;4586026;19;20479;-28
2022/12/12 11:27:35;;;;;;;9.00;5.20;;;12.20;89.30;;;;;;4587952;19;20559;-28
2022/12/12 11:29:06;;;;;;;42.57;24.30;;;12.10;89.40;;;;;;4588545;19;20015;-28
2022/12/12 11:30:38;;;;;;;13.35;7.57;;;12.10;89.50;;;;;;4587427;19;20866;-28
2022/12/12 11:32:15;;;;;;;10.77;6.70;;;12.00;89.40;;;;;;4586659;19;20007;-29
2022/12/12 11:33:48;;;;;;;25.80;14.33;;;12.00;89.40;;;;;;4587339;19;20401;-29
2022/12/12 11:35:32;;;;;;;17.07;9.53;;;12.10;89.30;;;;;;4587208;19;20793;-28
2022/12/12 11:37:12;;;;;;;12.77;7.93;;;12.20;89.40;;;;;;4588144;19;20443;-28
2022/12/12 11:38:52;;;;;;;12.60;7.43;;;12.20;89.40;;;;;;4591293;19;20428;-28
2022/12/12 11:40:29;;;;;;;74.90;38.10;;;12.20;89.30;;;;;;4594181;19;20463;-28
2022/12/12 11:42:03;;;;;;;12.47;7.80;;;12.30;89.40;;;;;;4594646;19;20806;-28
2022/12/12 11:43:46;;;;;;;65.03;35.30;;;12.20;89.30;;;;;;4592634;19;20456;-28
2022/12/12 11:45:22;;;;;;;19.83;11.17;;;12.20;89.30;;;;;;4592237;19;21162;-28
2022/12/12 11:46:54;;;;;;;24.07;13.37;;;12.30;89.30;;;;;;4593575;19;20460;-28
2022/12/12 11:48:31;;;;;;;12.65;7.72;;;12.30;89.30;;;;;;4593107;19;20445;-28
2022/12/12 11:50:19;;;;;;;14.03;8.70;;;12.20;89.20;;;;;;4593171;19;20011;-28
2022/12/12 11:51:50;;;;;;;7.17;4.50;;;12.30;89.20;;;;;;4591534;19;20452;-28
2022/12/12 11:53:21;;;;;;;9.75;6.82;;;12.20;89.20;;;;;;4591200;19;20495;-28
2022/12/12 11:54:53;;;;;;;6.68;3.88;;;12.30;89.20;;;;;;4591256;19;20014;-28
2022/12/12 11:56:54;;;;;;;9.52;6.00;;;12.20;89.10;;;;;;4590975;19;20019;-28
2022/12/12 11:58:30;;;;;;;16.55;12.05;;;12.20;89.20;;;;;;4591282;19;20131;-28
2022/12/12 12:00:12;;;;;;;20.17;13.83;;;12.30;89.20;;;;;;4590885;19;20113;-28
2022/12/12 12:02:02;;;;;;;11.30;7.30;;;12.30;89.00;;;;;;4590856;19;20521;-28
2022/12/12 12:04:10;;;;;;;10.00;6.50;;;12.30;89.10;;;;;;4591406;19;20448;-29
2022/12/12 12:06:08;;;;;;;21.77;16.23;;;12.30;89.00;;;;;;4590336;19;20814;-29
2022/12/12 12:08:04;;;;;;;18.90;12.77;;;12.20;89.00;;;;;;4589901;19;20445;-28
2022/12/12 12:09:48;;;;;;;14.00;7.80;;;12.20;89.00;;;;;;4589649;19;20416;-28
2022/12/12 12:11:31;;;;;;;29.67;20.40;;;12.30;89.10;;;;;;4589458;19;20457;-28
2022/12/12 12:13:44;;;;;;;19.57;12.80;;;12.30;89.10;;;;;;4589468;19;20448;-28
2022/12/12 12:15:47;;;;;;;14.82;9.07;;;12.30;89.60;;;;;;4591111;19;20440;-28
2022/12/12 12:17:24;;;;;;;14.37;9.70;;;12.30;89.20;;;;;;4591754;19;20021;-28
2022/12/12 12:19:46;;;;;;;12.23;8.17;;;12.30;89.20;;;;;;4590616;19;20496;-29
2022/12/12 12:21:29;;;;;;;12.53;9.27;;;12.30;89.30;;;;;;4588541;19;20567;-28
2022/12/12 12:23:12;;;;;;;12.93;8.57;;;12.30;89.20;;;;;;4589493;19;20452;-29
2022/12/12 12:25:21;;;;;;;9.93;6.07;;;12.20;89.10;;;;;;4591146;19;20081;-29
2022/12/12 12:27:04;;;;;;;18.20;11.00;;;12.20;89.20;;;;;;4588803;19;20453;-28
2022/12/12 12:28:45;;;;;;;10.67;7.03;;;12.10;89.20;;;;;;4589192;19;21589;-28
2022/12/12 12:30:25;;;;;;;10.80;6.97;;;12.00;89.30;;;;;;4589802;19;20433;-29
2022/12/12 12:32:05;;;;;;;13.07;8.57;;;12.00;89.50;;;;;;4589603;19;21068;-28
2022/12/12 12:33:55;;;;;;;10.97;6.33;;;12.10;89.40;;;;;;4591428;19;20556;-28
2022/12/12 12:35:29;;;;;;;7.50;5.03;;;12.20;89.30;;;;;;4589004;19;20510;-28
2022/12/12 12:37:10;;;;;;;6.50;3.90;;;12.20;89.40;;;;;;4588178;19;20497;-28
2022/12/12 12:39:03;;;;;;;7.27;4.60;;;12.10;89.20;;;;;;4591411;19;20453;-28
2022/12/12 12:41:09;;;;;;;10.67;6.90;;;12.10;89.20;;;;;;4589015;19;20499;-28
2022/12/12 12:43:00;;;;;;;11.63;8.10;;;12.20;89.30;;;;;;4588947;19;20473;-28
2022/12/12 12:44:57;;;;;;;11.52;7.82;;;12.20;89.20;;;;;;4590001;19;20490;-28
2022/12/12 12:46:38;;;;;;;14.33;8.23;;;12.20;89.20;;;;;;4590257;19;20427;-28
2022/12/12 12:48:19;;;;;;;19.02;10.55;;;12.20;89.20;;;;;;4589106;19;20494;-29
2022/12/12 12:49:56;;;;;;;16.33;11.33;;;12.20;89.20;;;;;;4589902;19;20108;-28
2022/12/12 12:51:30;;;;;;;9.10;5.77;;;12.20;89.00;;;;;;4590044;19;21358;-28
2022/12/12 12:53:05;;;;;;;14.83;8.97;;;12.10;89.00;;;;;;4589330;19;20469;-28
2022/12/12 12:54:39;;;;;;;32.03;15.63;;;12.20;89.10;;;;;;4589274;19;20532;-28
2022/12/12 12:56:21;;;;;;;9.10;6.23;;;12.20;89.20;;;;;;4590070;19;20525;-28
2022/12/12 12:57:52;;;;;;;;;;;12.20;89.10;;;;;;4591900;19;20540;-28
2022/12/12 12:59:28;;;;;;;7.80;5.77;;;12.20;89.10;;;;;;4589060;19;19990;-28
2022/12/12 13:01:15;;;;;;;8.40;4.97;;;12.10;89.00;;;;;;4589224;19;20893;-28
2022/12/12 13:03:18;;;;;;;10.60;6.90;;;12.10;89.00;;;;;;4589836;19;20519;-28
2022/12/12 13:05:21;;;;;;;6.77;4.80;;;12.30;89.00;;;;;;4589956;19;20523;-28
2022/12/12 13:07:10;;;;;;;8.85;5.38;;;12.30;88.80;;;;;;4589746;19;20480;-28
2022/12/12 13:09:16;;;;;;;9.45;5.43;;;12.30;88.70;;;;;;4589856;19;20014;-28
2022/12/12 13:10:50;;;;;;;9.23;6.27;;;12.40;88.70;;;;;;4590966;19;20153;-28
2022/12/12 13:12:38;;;;;;;7.80;5.10;;;12.40;88.60;;;;;;4589749;19;21129;-28
2022/12/12 13:14:18;;;;;;;9.43;6.80;;;12.40;88.40;;;;;;4590634;19;20462;-28
2022/12/12 13:15:51;;;;;;;9.93;6.50;;;12.50;88.30;;;;;;4590668;19;20608;-28
2022/12/12 13:17:40;;;;;;;10.27;7.47;;;12.40;88.10;;;;;;4589764;19;20469;-28
2022/12/12 13:19:39;;;;;;;9.73;6.30;;;12.50;88.10;;;;;;4590104;19;20460;-28
2022/12/12 13:21:30;;;;;;;9.80;6.10;;;12.50;88.00;;;;;;4587514;19;20493;-28
2022/12/12 13:23:25;;;;;;;7.10;4.70;;;12.50;87.90;;;;;;4588510;19;20514;-28
2022/12/12 13:25:24;;;;;;;10.57;7.27;;;12.50;87.90;;;;;;4589731;19;20042;-28
2022/12/12 13:27:03;;;;;;;8.80;6.47;;;12.50;87.90;;;;;;4587914;19;20875;-29
2022/12/12 13:28:41;;;;;;;7.60;5.20;;;12.50;88.00;;;;;;4588513;19;20441;-28
2022/12/12 13:30:21;;;;;;;8.43;5.47;;;12.50;88.10;;;;;;4588810;19;20551;-28
2022/12/12 13:32:04;;;;;;;9.13;5.60;;;12.40;88.00;;;;;;4590643;19;20576;-28
2022/12/12 13:33:49;;;;;;;12.60;9.07;;;12.50;88.60;;;;;;4590388;19;21400;-28
2022/12/12 13:35:34;;;;;;;14.53;10.00;;;12.50;88.00;;;;;;4588085;19;20479;-28
2022/12/12 13:37:05;;;;;;;7.60;4.93;;;12.50;88.00;;;;;;4587182;19;20409;-29
2022/12/12 13:38:37;;;;;;;6.43;4.72;;;12.50;87.90;;;;;;4590204;19;20796;-29